sensor_id;sensor_type;location;lat;lon;timestamp;P1;durP1;ratioP1;P2;durP2;ratioP2
23388;SDS011;11867;51.198;11.966;2024-03-08T00:02:41;41.58;;;22.38;;
23388;SDS011;11867;51.198;11.966;2024-03-08T00:08:05;37.40;;;22.80;;
23388;SDS011;11867;51.198;11.966;2024-03-08T00:13:32;39.83;;;23.20;;
23388;SDS011;11867;51.198;11.966;2024-03-08T00:18:57;33.10;;;18.23;;
23388;SDS011;11867;51.198;11.966;2024-03-08T00:24:19;30.25;;;17.52;;
23388;SDS011;11867;51.198;11.966;2024-03-08T00:29:45;39.65;;;23.08;;
23388;SDS011;11867;51.198;11.966;2024-03-08T00:35:10;39.20;;;22.45;;
23388;SDS011;11867;51.198;11.966;2024-03-08T00:40:34;41.10;;;23.05;;
23388;SDS011;11867;51.198;11.966;2024-03-08T00:45:57;41.42;;;24.13;;
23388;SDS011;11867;51.198;11.966;2024-03-08T00:51:21;36.33;;;22.88;;
23388;SDS011;11867;51.198;11.966;2024-03-08T00:56:44;30.65;;;17.98;;
23388;SDS011;11867;51.198;11.966;2024-03-08T01:02:07;41.45;;;23.25;;
23388;SDS011;11867;51.198;11.966;2024-03-08T01:07:32;40.53;;;23.80;;
23388;SDS011;11867;51.198;11.966;2024-03-08T01:12:55;31.00;;;18.08;;
23388;SDS011;11867;51.198;11.966;2024-03-08T01:18:18;36.70;;;21.63;;
23388;SDS011;11867;51.198;11.966;2024-03-08T01:23:45;38.28;;;22.90;;
23388;SDS011;11867;51.198;11.966;2024-03-08T01:29:08;37.13;;;22.25;;
23388;SDS011;11867;51.198;11.966;2024-03-08T01:34:31;40.17;;;22.92;;
23388;SDS011;11867;51.198;11.966;2024-03-08T01:39:56;36.15;;;23.83;;
23388;SDS011;11867;51.198;11.966;2024-03-08T01:45:18;26.48;;;17.77;;
23388;SDS011;11867;51.198;11.966;2024-03-08T01:50:41;36.58;;;23.15;;
23388;SDS011;11867;51.198;11.966;2024-03-08T01:56:06;36.75;;;23.20;;
23388;SDS011;11867;51.198;11.966;2024-03-08T02:01:30;35.60;;;22.77;;
23388;SDS011;11867;51.198;11.966;2024-03-08T02:06:53;44.70;;;24.27;;
23388;SDS011;11867;51.198;11.966;2024-03-08T02:12:18;42.03;;;22.67;;
23388;SDS011;11867;51.198;11.966;2024-03-08T02:17:42;38.58;;;22.35;;
23388;SDS011;11867;51.198;11.966;2024-03-08T02:23:06;38.95;;;23.77;;
23388;SDS011;11867;51.198;11.966;2024-03-08T02:28:29;29.42;;;17.67;;
23388;SDS011;11867;51.198;11.966;2024-03-08T02:33:53;39.92;;;22.23;;
23388;SDS011;11867;51.198;11.966;2024-03-08T02:39:17;39.97;;;24.20;;
23388;SDS011;11867;51.198;11.966;2024-03-08T02:44:42;38.88;;;22.75;;
23388;SDS011;11867;51.198;11.966;2024-03-08T02:50:06;28.02;;;17.13;;
23388;SDS011;11867;51.198;11.966;2024-03-08T02:55:32;31.13;;;17.00;;
23388;SDS011;11867;51.198;11.966;2024-03-08T03:00:57;39.20;;;23.15;;
23388;SDS011;11867;51.198;11.966;2024-03-08T03:06:20;38.80;;;23.27;;
23388;SDS011;11867;51.198;11.966;2024-03-08T03:11:48;34.75;;;21.95;;
23388;SDS011;11867;51.198;11.966;2024-03-08T03:17:10;37.10;;;23.23;;
23388;SDS011;11867;51.198;11.966;2024-03-08T03:22:33;37.08;;;23.48;;
23388;SDS011;11867;51.198;11.966;2024-03-08T03:27:58;39.65;;;24.95;;
23388;SDS011;11867;51.198;11.966;2024-03-08T03:38:44;39.42;;;23.27;;
23388;SDS011;11867;51.198;11.966;2024-03-08T03:44:08;41.17;;;24.35;;
23388;SDS011;11867;51.198;11.966;2024-03-08T03:49:31;30.55;;;19.13;;
23388;SDS011;11867;51.198;11.966;2024-03-08T03:54:54;40.15;;;25.10;;
23388;SDS011;11867;51.198;11.966;2024-03-08T04:00:19;44.55;;;24.88;;
23388;SDS011;11867;51.198;11.966;2024-03-08T04:05:42;33.33;;;19.38;;
23388;SDS011;11867;51.198;11.966;2024-03-08T04:11:05;41.38;;;24.50;;
23388;SDS011;11867;51.198;11.966;2024-03-08T04:16:30;42.05;;;26.38;;
23388;SDS011;11867;51.198;11.966;2024-03-08T04:21:53;33.50;;;19.77;;
23388;SDS011;11867;51.198;11.966;2024-03-08T04:27:16;38.15;;;23.75;;
23388;SDS011;11867;51.198;11.966;2024-03-08T04:32:40;42.15;;;24.45;;
23388;SDS011;11867;51.198;11.966;2024-03-08T04:38:04;42.40;;;24.38;;
23388;SDS011;11867;51.198;11.966;2024-03-08T04:43:28;39.90;;;24.23;;
23388;SDS011;11867;51.198;11.966;2024-03-08T04:48:53;37.65;;;19.80;;
23388;SDS011;11867;51.198;11.966;2024-03-08T04:54:16;36.47;;;20.50;;
23388;SDS011;11867;51.198;11.966;2024-03-08T04:59:39;44.40;;;25.20;;
23388;SDS011;11867;51.198;11.966;2024-03-08T05:05:04;42.33;;;25.00;;
23388;SDS011;11867;51.198;11.966;2024-03-08T05:10:27;45.65;;;25.08;;
23388;SDS011;11867;51.198;11.966;2024-03-08T05:15:50;45.00;;;25.13;;
23388;SDS011;11867;51.198;11.966;2024-03-08T05:21:14;43.53;;;25.73;;
23388;SDS011;11867;51.198;11.966;2024-03-08T05:26:41;40.72;;;24.92;;
23388;SDS011;11867;51.198;11.966;2024-03-08T05:32:04;41.90;;;25.50;;
23388;SDS011;11867;51.198;11.966;2024-03-08T05:37:31;42.88;;;25.23;;
23388;SDS011;11867;51.198;11.966;2024-03-08T05:48:19;45.53;;;26.35;;
23388;SDS011;11867;51.198;11.966;2024-03-08T05:53:45;45.95;;;25.45;;
23388;SDS011;11867;51.198;11.966;2024-03-08T05:59:08;33.50;;;20.02;;
23388;SDS011;11867;51.198;11.966;2024-03-08T06:04:31;41.63;;;25.27;;
23388;SDS011;11867;51.198;11.966;2024-03-08T06:09:55;46.80;;;26.55;;
23388;SDS011;11867;51.198;11.966;2024-03-08T06:15:18;37.45;;;21.98;;
23388;SDS011;11867;51.198;11.966;2024-03-08T06:20:42;34.07;;;21.27;;
23388;SDS011;11867;51.198;11.966;2024-03-08T06:26:07;53.15;;;29.90;;
23388;SDS011;11867;51.198;11.966;2024-03-08T06:36:53;48.90;;;27.73;;
23388;SDS011;11867;51.198;11.966;2024-03-08T06:42:23;43.88;;;28.70;;
23388;SDS011;11867;51.198;11.966;2024-03-08T06:47:46;44.15;;;25.65;;
23388;SDS011;11867;51.198;11.966;2024-03-08T06:53:09;47.00;;;29.27;;
23388;SDS011;11867;51.198;11.966;2024-03-08T06:58:34;50.88;;;30.20;;
23388;SDS011;11867;51.198;11.966;2024-03-08T07:03:57;40.50;;;22.88;;
23388;SDS011;11867;51.198;11.966;2024-03-08T07:09:21;35.77;;;22.00;;
23388;SDS011;11867;51.198;11.966;2024-03-08T07:14:45;45.75;;;28.92;;
23388;SDS011;11867;51.198;11.966;2024-03-08T07:20:08;40.88;;;23.65;;
23388;SDS011;11867;51.198;11.966;2024-03-08T07:25:33;47.40;;;27.95;;
23388;SDS011;11867;51.198;11.966;2024-03-08T07:30:58;45.10;;;28.30;;
23388;SDS011;11867;51.198;11.966;2024-03-08T07:36:38;44.83;;;27.77;;
23388;SDS011;11867;51.198;11.966;2024-03-08T07:42:04;45.17;;;28.20;;
23388;SDS011;11867;51.198;11.966;2024-03-08T07:47:29;50.55;;;30.23;;
23388;SDS011;11867;51.198;11.966;2024-03-08T07:52:54;44.88;;;28.42;;
23388;SDS011;11867;51.198;11.966;2024-03-08T07:58:17;48.25;;;28.67;;
23388;SDS011;11867;51.198;11.966;2024-03-08T08:03:43;43.80;;;27.45;;
23388;SDS011;11867;51.198;11.966;2024-03-08T08:09:07;47.10;;;28.33;;
23388;SDS011;11867;51.198;11.966;2024-03-08T08:14:35;45.47;;;28.83;;
23388;SDS011;11867;51.198;11.966;2024-03-08T08:20:00;47.33;;;28.20;;
23388;SDS011;11867;51.198;11.966;2024-03-08T08:25:26;48.05;;;29.63;;
23388;SDS011;11867;51.198;11.966;2024-03-08T08:30:49;47.10;;;27.83;;
23388;SDS011;11867;51.198;11.966;2024-03-08T08:36:15;36.67;;;23.43;;
23388;SDS011;11867;51.198;11.966;2024-03-08T08:41:38;38.40;;;22.70;;
23388;SDS011;11867;51.198;11.966;2024-03-08T08:47:00;42.08;;;27.55;;
23388;SDS011;11867;51.198;11.966;2024-03-08T08:52:34;49.40;;;27.30;;
23388;SDS011;11867;51.198;11.966;2024-03-08T08:58:00;46.53;;;28.60;;
23388;SDS011;11867;51.198;11.966;2024-03-08T09:03:24;32.67;;;21.60;;
23388;SDS011;11867;51.198;11.966;2024-03-08T09:08:50;35.85;;;22.45;;
23388;SDS011;11867;51.198;11.966;2024-03-08T09:14:13;35.50;;;22.70;;
23388;SDS011;11867;51.198;11.966;2024-03-08T09:19:36;45.08;;;28.75;;
23388;SDS011;11867;51.198;11.966;2024-03-08T09:25:00;48.95;;;28.92;;
23388;SDS011;11867;51.198;11.966;2024-03-08T09:30:24;43.53;;;27.50;;
23388;SDS011;11867;51.198;11.966;2024-03-08T09:35:47;42.20;;;26.10;;
23388;SDS011;11867;51.198;11.966;2024-03-08T09:41:14;41.35;;;26.50;;
23388;SDS011;11867;51.198;11.966;2024-03-08T09:46:37;42.83;;;26.73;;
23388;SDS011;11867;51.198;11.966;2024-03-08T09:52:00;46.08;;;28.63;;
23388;SDS011;11867;51.198;11.966;2024-03-08T09:57:27;42.67;;;27.63;;
23388;SDS011;11867;51.198;11.966;2024-03-08T10:02:51;33.95;;;19.52;;
23388;SDS011;11867;51.198;11.966;2024-03-08T10:08:15;35.83;;;21.05;;
23388;SDS011;11867;51.198;11.966;2024-03-08T10:13:40;44.15;;;25.17;;
23388;SDS011;11867;51.198;11.966;2024-03-08T10:19:05;38.85;;;22.92;;
23388;SDS011;11867;51.198;11.966;2024-03-08T10:24:28;37.80;;;24.83;;
23388;SDS011;11867;51.198;11.966;2024-03-08T10:29:52;52.35;;;25.60;;
23388;SDS011;11867;51.198;11.966;2024-03-08T10:35:15;31.83;;;18.48;;
23388;SDS011;11867;51.198;11.966;2024-03-08T10:40:41;37.00;;;25.13;;
23388;SDS011;11867;51.198;11.966;2024-03-08T10:46:11;41.75;;;23.60;;
23388;SDS011;11867;51.198;11.966;2024-03-08T10:51:44;47.30;;;25.80;;
23388;SDS011;11867;51.198;11.966;2024-03-08T10:57:09;37.33;;;23.55;;
23388;SDS011;11867;51.198;11.966;2024-03-08T11:02:36;37.30;;;24.65;;
23388;SDS011;11867;51.198;11.966;2024-03-08T11:07:59;28.13;;;18.92;;
23388;SDS011;11867;51.198;11.966;2024-03-08T11:13:35;36.70;;;24.40;;
23388;SDS011;11867;51.198;11.966;2024-03-08T11:19:01;38.08;;;26.77;;
23388;SDS011;11867;51.198;11.966;2024-03-08T11:24:38;38.92;;;25.27;;
23388;SDS011;11867;51.198;11.966;2024-03-08T11:30:04;53.55;;;26.38;;
23388;SDS011;11867;51.198;11.966;2024-03-08T11:35:40;47.80;;;26.77;;
23388;SDS011;11867;51.198;11.966;2024-03-08T11:41:07;40.40;;;24.85;;
23388;SDS011;11867;51.198;11.966;2024-03-08T11:46:30;50.28;;;25.38;;
23388;SDS011;11867;51.198;11.966;2024-03-08T11:51:55;31.83;;;22.42;;
23388;SDS011;11867;51.198;11.966;2024-03-08T11:57:18;36.28;;;22.80;;
23388;SDS011;11867;51.198;11.966;2024-03-08T12:02:41;44.00;;;24.00;;
23388;SDS011;11867;51.198;11.966;2024-03-08T12:08:13;50.85;;;25.35;;
23388;SDS011;11867;51.198;11.966;2024-03-08T12:13:36;34.20;;;23.67;;
23388;SDS011;11867;51.198;11.966;2024-03-08T12:19:01;38.75;;;26.02;;
23388;SDS011;11867;51.198;11.966;2024-03-08T12:24:27;44.78;;;27.30;;
23388;SDS011;11867;51.198;11.966;2024-03-08T12:29:52;35.33;;;25.77;;
23388;SDS011;11867;51.198;11.966;2024-03-08T12:35:20;43.67;;;26.98;;
23388;SDS011;11867;51.198;11.966;2024-03-08T12:40:45;37.17;;;26.58;;
23388;SDS011;11867;51.198;11.966;2024-03-08T12:51:31;41.88;;;27.40;;
23388;SDS011;11867;51.198;11.966;2024-03-08T12:56:56;38.33;;;26.05;;
23388;SDS011;11867;51.198;11.966;2024-03-08T13:02:20;38.25;;;25.60;;
23388;SDS011;11867;51.198;11.966;2024-03-08T13:07:43;51.03;;;27.67;;
23388;SDS011;11867;51.198;11.966;2024-03-08T13:13:10;35.90;;;25.67;;
23388;SDS011;11867;51.198;11.966;2024-03-08T13:18:33;36.15;;;24.42;;
23388;SDS011;11867;51.198;11.966;2024-03-08T13:23:56;35.65;;;25.45;;
23388;SDS011;11867;51.198;11.966;2024-03-08T13:29:22;43.05;;;25.63;;
23388;SDS011;11867;51.198;11.966;2024-03-08T13:34:45;37.03;;;24.08;;
23388;SDS011;11867;51.198;11.966;2024-03-08T13:40:09;37.22;;;24.80;;
23388;SDS011;11867;51.198;11.966;2024-03-08T13:45:36;35.58;;;23.48;;
23388;SDS011;11867;51.198;11.966;2024-03-08T13:51:00;36.65;;;24.35;;
23388;SDS011;11867;51.198;11.966;2024-03-08T13:56:23;37.03;;;24.60;;
23388;SDS011;11867;51.198;11.966;2024-03-08T14:01:47;33.38;;;23.73;;
23388;SDS011;11867;51.198;11.966;2024-03-08T14:07:10;28.38;;;22.70;;
23388;SDS011;11867;51.198;11.966;2024-03-08T14:12:33;31.02;;;22.92;;
23388;SDS011;11867;51.198;11.966;2024-03-08T14:17:58;27.65;;;22.30;;
23388;SDS011;11867;51.198;11.966;2024-03-08T14:23:21;31.20;;;22.45;;
23388;SDS011;11867;51.198;11.966;2024-03-08T14:28:44;29.08;;;20.55;;
23388;SDS011;11867;51.198;11.966;2024-03-08T14:34:09;30.53;;;22.07;;
23388;SDS011;11867;51.198;11.966;2024-03-08T14:39:32;32.13;;;21.85;;
23388;SDS011;11867;51.198;11.966;2024-03-08T14:44:55;27.40;;;21.33;;
23388;SDS011;11867;51.198;11.966;2024-03-08T14:55:45;28.98;;;21.38;;
23388;SDS011;11867;51.198;11.966;2024-03-08T15:01:09;32.17;;;21.17;;
23388;SDS011;11867;51.198;11.966;2024-03-08T15:06:36;31.77;;;21.45;;
23388;SDS011;11867;51.198;11.966;2024-03-08T15:12:00;21.60;;;15.85;;
23388;SDS011;11867;51.198;11.966;2024-03-08T15:17:23;29.10;;;20.80;;
23388;SDS011;11867;51.198;11.966;2024-03-08T15:22:47;28.23;;;20.77;;
23388;SDS011;11867;51.198;11.966;2024-03-08T15:28:10;31.88;;;22.60;;
23388;SDS011;11867;51.198;11.966;2024-03-08T15:33:36;34.97;;;23.65;;
23388;SDS011;11867;51.198;11.966;2024-03-08T15:39:07;40.17;;;26.75;;
23388;SDS011;11867;51.198;11.966;2024-03-08T15:44:32;41.20;;;24.52;;
23388;SDS011;11867;51.198;11.966;2024-03-08T15:49:55;45.53;;;29.13;;
23388;SDS011;11867;51.198;11.966;2024-03-08T15:55:20;41.00;;;26.40;;
23388;SDS011;11867;51.198;11.966;2024-03-08T16:00:46;43.75;;;28.25;;
23388;SDS011;11867;51.198;11.966;2024-03-08T16:06:09;43.38;;;27.48;;
23388;SDS011;11867;51.198;11.966;2024-03-08T16:11:33;40.55;;;27.27;;
23388;SDS011;11867;51.198;11.966;2024-03-08T16:16:59;45.40;;;28.13;;
23388;SDS011;11867;51.198;11.966;2024-03-08T16:22:22;46.65;;;29.02;;
23388;SDS011;11867;51.198;11.966;2024-03-08T16:27:46;50.90;;;31.70;;
23388;SDS011;11867;51.198;11.966;2024-03-08T16:33:09;44.40;;;30.83;;
23388;SDS011;11867;51.198;11.966;2024-03-08T16:38:32;46.28;;;29.55;;
23388;SDS011;11867;51.198;11.966;2024-03-08T16:44:00;45.45;;;28.88;;
23388;SDS011;11867;51.198;11.966;2024-03-08T16:49:25;39.78;;;26.48;;
23388;SDS011;11867;51.198;11.966;2024-03-08T16:54:52;43.83;;;27.75;;
23388;SDS011;11867;51.198;11.966;2024-03-08T17:00:29;43.83;;;28.25;;
23388;SDS011;11867;51.198;11.966;2024-03-08T17:05:54;41.63;;;28.13;;
23388;SDS011;11867;51.198;11.966;2024-03-08T17:11:18;40.78;;;28.30;;
23388;SDS011;11867;51.198;11.966;2024-03-08T17:16:45;45.55;;;29.50;;
23388;SDS011;11867;51.198;11.966;2024-03-08T17:22:08;48.28;;;29.88;;
23388;SDS011;11867;51.198;11.966;2024-03-08T17:27:32;34.47;;;22.20;;
23388;SDS011;11867;51.198;11.966;2024-03-08T17:32:59;48.08;;;30.42;;
23388;SDS011;11867;51.198;11.966;2024-03-08T17:38:30;41.47;;;30.02;;
23388;SDS011;11867;51.198;11.966;2024-03-08T17:43:53;45.97;;;30.88;;
23388;SDS011;11867;51.198;11.966;2024-03-08T17:49:18;47.03;;;31.35;;
23388;SDS011;11867;51.198;11.966;2024-03-08T17:54:43;48.40;;;31.63;;
23388;SDS011;11867;51.198;11.966;2024-03-08T18:00:09;46.05;;;30.05;;
23388;SDS011;11867;51.198;11.966;2024-03-08T18:05:40;43.60;;;29.95;;
23388;SDS011;11867;51.198;11.966;2024-03-08T18:11:07;53.58;;;34.03;;
23388;SDS011;11867;51.198;11.966;2024-03-08T18:16:31;45.08;;;28.90;;
23388;SDS011;11867;51.198;11.966;2024-03-08T18:21:56;45.65;;;29.20;;
23388;SDS011;11867;51.198;11.966;2024-03-08T18:27:21;48.75;;;29.85;;
23388;SDS011;11867;51.198;11.966;2024-03-08T18:32:50;45.00;;;30.17;;
23388;SDS011;11867;51.198;11.966;2024-03-08T18:38:15;42.40;;;28.23;;
23388;SDS011;11867;51.198;11.966;2024-03-08T18:43:41;39.30;;;26.83;;
23388;SDS011;11867;51.198;11.966;2024-03-08T18:49:04;40.97;;;27.40;;
23388;SDS011;11867;51.198;11.966;2024-03-08T18:54:29;41.85;;;28.15;;
23388;SDS011;11867;51.198;11.966;2024-03-08T18:59:54;39.67;;;26.40;;
23388;SDS011;11867;51.198;11.966;2024-03-08T19:05:19;43.88;;;29.45;;
23388;SDS011;11867;51.198;11.966;2024-03-08T19:10:48;44.88;;;29.00;;
23388;SDS011;11867;51.198;11.966;2024-03-08T19:16:12;47.80;;;29.38;;
23388;SDS011;11867;51.198;11.966;2024-03-08T19:21:43;47.58;;;30.73;;
23388;SDS011;11867;51.198;11.966;2024-03-08T19:27:08;46.60;;;31.13;;
23388;SDS011;11867;51.198;11.966;2024-03-08T19:32:34;41.83;;;28.58;;
23388;SDS011;11867;51.198;11.966;2024-03-08T19:37:57;41.15;;;26.83;;
23388;SDS011;11867;51.198;11.966;2024-03-08T19:43:22;29.90;;;20.42;;
23388;SDS011;11867;51.198;11.966;2024-03-08T19:48:48;33.75;;;24.30;;
23388;SDS011;11867;51.198;11.966;2024-03-08T19:54:11;40.50;;;24.83;;
23388;SDS011;11867;51.198;11.966;2024-03-08T19:59:37;34.97;;;24.33;;
23388;SDS011;11867;51.198;11.966;2024-03-08T20:05:06;37.45;;;24.88;;
23388;SDS011;11867;51.198;11.966;2024-03-08T20:10:31;30.77;;;20.27;;
23388;SDS011;11867;51.198;11.966;2024-03-08T20:16:02;37.28;;;25.40;;
23388;SDS011;11867;51.198;11.966;2024-03-08T20:21:26;40.40;;;26.50;;
23388;SDS011;11867;51.198;11.966;2024-03-08T20:26:49;36.50;;;24.25;;
23388;SDS011;11867;51.198;11.966;2024-03-08T20:32:16;44.03;;;26.35;;
23388;SDS011;11867;51.198;11.966;2024-03-08T20:37:41;35.80;;;24.73;;
23388;SDS011;11867;51.198;11.966;2024-03-08T20:43:04;38.10;;;25.30;;
23388;SDS011;11867;51.198;11.966;2024-03-08T20:48:31;38.88;;;27.13;;
23388;SDS011;11867;51.198;11.966;2024-03-08T20:53:56;42.17;;;29.02;;
23388;SDS011;11867;51.198;11.966;2024-03-08T20:59:19;44.78;;;28.35;;
23388;SDS011;11867;51.198;11.966;2024-03-08T21:04:43;41.45;;;29.05;;
23388;SDS011;11867;51.198;11.966;2024-03-08T21:10:10;45.70;;;28.05;;
23388;SDS011;11867;51.198;11.966;2024-03-08T21:15:36;45.13;;;30.08;;
23388;SDS011;11867;51.198;11.966;2024-03-08T21:21:00;48.15;;;31.60;;
23388;SDS011;11867;51.198;11.966;2024-03-08T21:26:25;47.65;;;29.55;;
23388;SDS011;11867;51.198;11.966;2024-03-08T21:31:48;49.03;;;28.77;;
23388;SDS011;11867;51.198;11.966;2024-03-08T21:37:13;45.03;;;30.17;;
23388;SDS011;11867;51.198;11.966;2024-03-08T21:42:46;37.35;;;24.65;;
23388;SDS011;11867;51.198;11.966;2024-03-08T21:48:10;53.13;;;33.42;;
23388;SDS011;11867;51.198;11.966;2024-03-08T21:53:34;47.20;;;30.48;;
23388;SDS011;11867;51.198;11.966;2024-03-08T21:58:59;47.03;;;30.02;;
23388;SDS011;11867;51.198;11.966;2024-03-08T22:04:23;33.58;;;22.95;;
23388;SDS011;11867;51.198;11.966;2024-03-08T22:09:52;49.33;;;29.60;;
23388;SDS011;11867;51.198;11.966;2024-03-08T22:15:16;48.60;;;30.45;;
23388;SDS011;11867;51.198;11.966;2024-03-08T22:20:40;47.45;;;27.75;;
23388;SDS011;11867;51.198;11.966;2024-03-08T22:26:04;37.30;;;24.77;;
23388;SDS011;11867;51.198;11.966;2024-03-08T22:31:32;32.38;;;21.65;;
23388;SDS011;11867;51.198;11.966;2024-03-08T22:36:56;24.40;;;14.95;;
23388;SDS011;11867;51.198;11.966;2024-03-08T22:42:20;32.83;;;20.08;;
23388;SDS011;11867;51.198;11.966;2024-03-08T22:47:44;29.17;;;20.38;;
23388;SDS011;11867;51.198;11.966;2024-03-08T22:53:08;22.75;;;15.70;;
23388;SDS011;11867;51.198;11.966;2024-03-08T22:58:37;29.23;;;20.10;;
23388;SDS011;11867;51.198;11.966;2024-03-08T23:04:03;30.13;;;20.20;;
23388;SDS011;11867;51.198;11.966;2024-03-08T23:09:30;28.60;;;19.67;;
23388;SDS011;11867;51.198;11.966;2024-03-08T23:14:57;32.90;;;20.08;;
23388;SDS011;11867;51.198;11.966;2024-03-08T23:20:20;25.08;;;17.25;;
23388;SDS011;11867;51.198;11.966;2024-03-08T23:25:53;29.02;;;19.73;;
23388;SDS011;11867;51.198;11.966;2024-03-08T23:31:18;32.42;;;19.85;;
23388;SDS011;11867;51.198;11.966;2024-03-08T23:36:41;24.48;;;15.23;;
23388;SDS011;11867;51.198;11.966;2024-03-08T23:42:04;32.97;;;20.42;;
23388;SDS011;11867;51.198;11.966;2024-03-08T23:47:29;28.90;;;19.52;;
23388;SDS011;11867;51.198;11.966;2024-03-08T23:52:55;29.92;;;19.40;;
23388;SDS011;11867;51.198;11.966;2024-03-08T23:58:21;33.88;;;20.85;;
